Time;durP1;ratioP1;P1;durP2;ratioP2;P2;SDS_P1;SDS_P2;PMS_P1;PMS_P2;Temp;Humidity;BMP_temperature;BMP_pressure;BME280_temperature;BME280_humidity;BME280_pressure;Samples;Min_cycle;Max_cycle;Signal;HPM_P1;HPM_P2
2022/02/16 00:07:08;;;;;;;5.38;1.85;;;8.50;99.90;;;;;;20748171;28;20068;-46
2022/02/16 00:17:09;;;;;;;2.92;1.67;;;8.50;99.90;;;;;;20684515;28;20044;-46
2022/02/16 00:27:10;;;;;;;3.70;1.58;;;8.50;99.90;;;;;;20691674;28;20528;-46
2022/02/16 00:37:11;;;;;;;4.30;1.48;;;8.50;99.90;;;;;;20736509;28;20042;-45
2022/02/16 00:47:12;;;;;;;5.95;1.88;;;8.50;99.90;;;;;;20745240;28;20050;-46
2022/02/16 00:57:14;;;;;;;4.13;2.00;;;8.50;99.90;;;;;;20739956;28;20042;-46
2022/02/16 01:07:15;;;;;;;8.00;2.25;;;8.50;99.90;;;;;;20737446;28;20286;-45
2022/02/16 01:17:17;;;;;;;4.53;1.70;;;8.50;99.90;;;;;;20741203;28;20046;-46
2022/02/16 01:27:19;;;;;;;8.13;3.05;;;8.50;99.90;;;;;;20735145;28;20073;-45
2022/02/16 01:37:20;;;;;;;6.30;2.33;;;8.50;99.90;;;;;;20727762;28;20038;-45
2022/02/16 01:47:21;;;;;;;4.35;1.48;;;8.40;99.90;;;;;;20721157;28;20248;-46
2022/02/16 01:57:22;;;;;;;4.22;1.65;;;8.40;99.90;;;;;;20712713;28;20041;-46
2022/02/16 02:07:23;;;;;;;5.28;1.88;;;8.40;99.90;;;;;;20703943;28;20046;-45
2022/02/16 02:17:25;;;;;;;6.65;1.60;;;8.40;99.90;;;;;;20680042;28;20029;-46
2022/02/16 02:27:27;;;;;;;5.00;2.25;;;8.40;99.90;;;;;;20652019;28;20721;-46
2022/02/16 02:37:28;;;;;;;6.75;2.58;;;8.50;99.90;;;;;;20725627;28;20101;-45
2022/02/16 02:47:29;;;;;;;8.88;2.38;;;8.60;99.90;;;;;;20719663;28;20060;-46
2022/02/16 02:57:31;;;;;;;6.18;2.50;;;8.70;99.90;;;;;;20725861;28;20408;-46
2022/02/16 03:07:32;;;;;;;8.23;2.53;;;8.80;99.90;;;;;;20714800;28;20053;-46
2022/02/16 03:17:33;;;;;;;11.82;3.53;;;8.80;99.90;;;;;;20706026;28;20033;-46
2022/02/16 03:27:34;;;;;;;7.88;2.85;;;8.80;99.90;;;;;;20722316;28;20050;-47
2022/02/16 03:37:35;;;;;;;7.38;3.17;;;8.80;99.90;;;;;;20719723;28;20526;-46
2022/02/16 03:47:37;;;;;;;5.28;2.40;;;8.90;99.90;;;;;;20710586;28;20042;-46
2022/02/16 03:57:38;;;;;;;5.00;2.50;;;9.00;99.90;;;;;;20703163;28;20038;-47
2022/02/16 04:07:39;;;;;;;6.15;2.60;;;9.00;99.90;;;;;;20716042;28;20062;-46
2022/02/16 04:17:41;;;;;;;4.18;1.67;;;9.00;99.90;;;;;;20727837;28;20436;-45
2022/02/16 04:27:43;;;;;;;4.53;2.33;;;9.00;99.90;;;;;;20709180;28;20050;-46
2022/02/16 04:37:44;;;;;;;4.30;1.88;;;9.10;99.90;;;;;;20717940;28;20508;-45
2022/02/16 04:47:45;;;;;;;5.57;2.13;;;9.00;99.90;;;;;;20708496;28;20620;-46
2022/02/16 04:57:46;;;;;;;10.00;2.67;;;9.10;99.90;;;;;;20724124;28;20052;-46
2022/02/16 05:07:47;;;;;;;6.63;2.63;;;9.10;99.90;;;;;;20704975;28;20042;-46
2022/02/16 05:17:48;;;;;;;6.75;3.10;;;9.10;99.90;;;;;;20709169;28;20045;-47
2022/02/16 05:27:49;;;;;;;6.43;2.67;;;9.00;99.90;;;;;;20740633;28;20041;-46
2022/02/16 05:37:51;;;;;;;5.80;2.00;;;9.10;99.90;;;;;;20730814;28;20050;-48
2022/02/16 05:47:52;;;;;;;4.78;1.77;;;9.10;99.90;;;;;;20721893;28;20057;-48
2022/02/16 05:57:54;;;;;;;5.15;1.92;;;9.20;99.90;;;;;;20693786;28;20038;-47
2022/02/16 06:07:56;;;;;;;5.45;2.22;;;9.20;99.90;;;;;;20718653;28;20045;-47
2022/02/16 06:17:57;;;;;;;10.45;1.83;;;9.30;99.90;;;;;;20667036;28;20651;-47
2022/02/16 06:28:03;;;;;;;2.90;1.50;;;9.40;99.90;;;;;;20655762;28;20045;-47
2022/02/16 06:38:06;;;;;;;3.85;1.42;;;9.60;99.90;;;;;;20698767;28;20537;-47
2022/02/16 06:48:07;;;;;;;1.92;0.73;;;9.70;99.90;;;;;;20657314;28;20220;-47
2022/02/16 06:58:08;;;;;;;1.88;0.90;;;9.70;99.90;;;;;;20698575;28;20429;-47
2022/02/16 07:08:09;;;;;;;2.08;0.68;;;9.80;99.90;;;;;;20680444;28;20053;-47
2022/02/16 07:18:12;;;;;;;1.70;0.98;;;9.80;99.90;;;;;;20721956;28;20052;-47
2022/02/16 07:28:13;;;;;;;2.33;0.88;;;9.80;99.90;;;;;;20702526;28;20134;-48
2022/02/16 07:38:15;;;;;;;2.75;1.00;;;9.80;99.90;;;;;;20642376;28;20317;-47
2022/02/16 07:48:16;;;;;;;3.10;0.95;;;9.90;99.90;;;;;;20644753;28;20573;-46
2022/02/16 07:58:17;;;;;;;2.80;1.00;;;10.00;99.90;;;;;;20652740;28;20057;-46
2022/02/16 08:08:18;;;;;;;4.07;1.33;;;10.10;99.90;;;;;;20630045;28;20046;-46
2022/02/16 08:18:20;;;;;;;11.45;2.63;;;10.20;99.90;;;;;;20646208;28;20772;-46
2022/02/16 08:28:22;;;;;;;3.45;1.48;;;10.50;99.90;;;;;;20649335;28;20156;-46
2022/02/16 08:38:23;;;;;;;4.78;1.63;;;10.70;99.90;;;;;;20576868;28;20364;-46
2022/02/16 08:48:25;;;;;;;2.10;0.90;;;10.70;99.90;;;;;;20633680;28;20066;-46
2022/02/16 08:58:27;;;;;;;10.27;1.40;;;10.80;99.90;;;;;;20582613;28;20507;-46
2022/02/16 09:08:28;;;;;;;4.53;1.10;;;11.00;99.90;;;;;;20657482;28;20046;-46
2022/02/16 09:18:31;;;;;;;4.93;0.98;;;11.20;99.90;;;;;;20619959;28;20081;-45
2022/02/16 09:28:33;;;;;;;7.55;1.08;;;11.30;99.90;;;;;;20613499;28;20418;-45
2022/02/16 09:38:34;;;;;;;6.65;1.08;;;11.50;99.90;;;;;;20613318;28;20050;-46
2022/02/16 09:48:36;;;;;;;4.45;1.05;;;11.70;99.90;;;;;;20607604;28;20343;-45
2022/02/16 09:58:37;;;;;;;5.78;0.82;;;12.00;99.90;;;;;;20614770;28;20046;-46
2022/02/16 10:08:47;;;;;;;4.82;1.13;;;12.10;99.90;;;;;;20602308;28;20050;-46
2022/02/16 10:18:56;;;;;;;5.35;0.77;;;12.30;99.90;;;;;;20582520;28;20050;-46
2022/02/16 10:29:00;;;;;;;3.85;0.50;;;12.40;99.90;;;;;;20613278;28;20069;-46
2022/02/16 10:39:10;;;;;;;4.60;1.08;;;12.40;99.90;;;;;;20592835;28;20045;-46
2022/02/16 10:49:17;;;;;;;2.58;0.40;;;12.30;99.90;;;;;;20609675;28;21327;-46
2022/02/16 10:59:19;;;;;;;1.97;0.80;;;12.20;99.90;;;;;;20572018;28;20536;-46
2022/02/16 11:09:23;;;;;;;3.75;0.90;;;12.20;99.90;;;;;;20636929;28;20053;-46
2022/02/16 11:19:32;;;;;;;5.13;0.70;;;12.20;99.90;;;;;;20630852;28;20366;-45
2022/02/16 11:29:37;;;;;;;7.20;0.93;;;12.10;99.90;;;;;;20577487;28;20046;-46
2022/02/16 11:39:48;;;;;;;6.55;1.48;;;12.10;99.90;;;;;;20607096;28;20038;-45
2022/02/16 11:49:49;;;;;;;9.77;1.70;;;12.10;99.90;;;;;;20601442;28;20050;-45
2022/02/16 11:59:58;;;;;;;7.13;1.70;;;12.00;99.90;;;;;;20636318;28;20093;-46
2022/02/16 12:10:39;;;;;;;5.60;1.17;;;11.90;99.90;;;;;;20622217;28;20049;-45
2022/02/16 12:20:40;;;;;;;9.30;1.40;;;12.00;99.90;;;;;;20615966;28;20807;-45
2022/02/16 12:30:42;;;;;;;8.38;1.10;;;12.10;99.90;;;;;;20603097;28;20366;-46
2022/02/16 12:40:43;;;;;;;3.40;0.80;;;12.10;99.90;;;;;;20621898;28;20044;-46
2022/02/16 12:50:45;;;;;;;8.32;0.82;;;12.10;99.90;;;;;;20608758;28;20551;-46
2022/02/16 13:00:51;;;;;;;9.10;1.23;;;12.30;99.90;;;;;;20631852;28;20148;-46
2022/02/16 13:10:56;;;;;;;8.00;0.88;;;12.20;99.90;;;;;;20612545;28;20046;-46
2022/02/16 13:21:16;;;;;;;11.65;1.60;;;12.20;99.90;;;;;;20607308;28;20130;-46
2022/02/16 13:31:23;;;;;;;8.30;1.45;;;12.30;99.90;;;;;;20607224;28;21597;-46
2022/02/16 13:41:25;;;;;;;14.35;1.98;;;12.30;99.90;;;;;;20582162;28;20514;-46
2022/02/16 13:51:26;;;;;;;5.90;1.65;;;12.30;99.90;;;;;;20593881;28;20147;-46
2022/02/16 14:01:27;;;;;;;19.52;2.05;;;12.20;99.90;;;;;;20602325;28;20384;-46
2022/02/16 14:11:30;;;;;;;10.70;2.10;;;12.10;99.90;;;;;;20610906;28;20057;-46
2022/02/16 14:21:31;;;;;;;12.38;3.13;;;12.10;99.90;;;;;;20619504;28;20108;-46
2022/02/16 14:31:33;;;;;;;13.07;1.83;;;11.90;99.90;;;;;;20568569;28;20069;-46
2022/02/16 14:41:35;;;;;;;9.60;2.40;;;11.80;99.90;;;;;;20610536;28;20490;-46
2022/02/16 14:51:39;;;;;;;9.60;1.60;;;11.70;99.90;;;;;;20596221;28;20041;-46
2022/02/16 15:01:40;;;;;;;11.07;1.85;;;11.70;99.90;;;;;;20612888;28;20057;-46
2022/02/16 15:11:42;;;;;;;13.18;2.35;;;11.70;99.90;;;;;;20613645;28;20053;-46
2022/02/16 15:21:43;;;;;;;16.17;1.92;;;11.70;99.90;;;;;;20607855;28;20038;-45
2022/02/16 15:31:44;;;;;;;17.05;2.22;;;11.70;99.90;;;;;;20621345;28;20045;-46
2022/02/16 15:41:45;;;;;;;21.95;3.40;;;11.70;99.90;;;;;;20606270;28;20050;-46
2022/02/16 15:51:47;;;;;;;17.33;2.45;;;11.70;99.90;;;;;;20622982;28;20054;-45
2022/02/16 16:01:48;;;;;;;9.50;2.10;;;11.90;99.90;;;;;;20619639;28;20048;-46
2022/02/16 16:11:49;;;;;;;9.48;1.48;;;11.90;99.90;;;;;;20623189;28;20050;-46
2022/02/16 16:21:50;;;;;;;9.95;1.65;;;12.00;99.90;;;;;;20596108;28;20034;-45
2022/02/16 16:31:53;;;;;;;14.35;1.88;;;12.10;99.90;;;;;;20622949;28;20046;-46
2022/02/16 16:41:54;;;;;;;10.00;3.15;;;12.20;99.90;;;;;;20630020;28;20057;-47
2022/02/16 16:51:56;;;;;;;7.25;1.50;;;12.40;99.90;;;;;;20624331;28;20404;-44
2022/02/16 17:01:57;;;;;;;5.47;1.40;;;12.50;99.90;;;;;;20630473;28;20044;-46
2022/02/16 17:11:58;;;;;;;7.28;1.77;;;12.60;99.90;;;;;;20611347;28;20046;-46
2022/02/16 17:21:59;;;;;;;4.43;1.90;;;12.80;99.90;;;;;;20615084;28;20308;-46
2022/02/16 17:32:01;;;;;;;2.53;1.08;;;12.80;99.90;;;;;;20656006;28;20426;-46
2022/02/16 17:42:02;;;;;;;5.18;1.75;;;12.70;99.90;;;;;;20626236;28;21268;-46
2022/02/16 17:52:04;;;;;;;5.47;1.40;;;12.80;99.90;;;;;;20560469;28;20109;-46
2022/02/16 18:02:06;;;;;;;2.22;1.02;;;12.80;99.90;;;;;;20436600;28;20076;-46
2022/02/16 18:12:14;;;;;;;5.32;2.47;;;12.90;99.90;;;;;;20468974;28;20134;-46
2022/02/16 18:22:16;;;;;;;;;;;13.00;99.90;;;;;;20471349;28;20438;-46
2022/02/16 18:32:19;;;;;;;10.60;2.05;;;13.00;99.90;;;;;;20491130;28;19930;-46
2022/02/16 18:42:20;;;;;;;3.95;1.42;;;12.90;99.90;;;;;;20477334;28;20129;-47
2022/02/16 18:52:21;;;;;;;7.47;1.00;;;13.00;99.90;;;;;;20468626;28;20531;-46
2022/02/16 19:02:22;;;;;;;6.63;1.52;;;13.00;99.90;;;;;;20471821;28;20092;-46
2022/02/16 19:12:23;;;;;;;5.35;0.90;;;13.10;99.90;;;;;;20456162;28;20047;-47
2022/02/16 19:22:26;;;;;;;2.40;1.08;;;13.10;99.90;;;;;;20459694;28;20043;-46
2022/02/16 19:32:27;;;;;;;2.65;1.20;;;13.10;99.90;;;;;;20473364;28;20050;-46
2022/02/16 19:42:35;;;;;;;5.80;1.63;;;12.70;99.90;;;;;;20521491;28;20690;-46
2022/02/16 19:52:38;;;;;;;9.20;1.48;;;12.30;99.90;;;;;;20495704;28;20047;-46
2022/02/16 20:02:39;;;;;;;6.65;1.10;;;12.20;99.90;;;;;;20519180;28;20038;-46
2022/02/16 20:12:41;;;;;;;2.60;0.93;;;12.20;99.90;;;;;;20523710;28;20051;-46
2022/02/16 20:22:43;;;;;;;4.68;0.65;;;12.20;99.90;;;;;;20527475;28;20046;-46
2022/02/16 20:32:46;;;;;;;2.65;0.73;;;12.10;99.90;;;;;;20524306;28;20046;-45
2022/02/16 20:42:50;;;;;;;5.65;1.35;;;12.10;99.90;;;;;;20531281;28;20042;-45
2022/02/16 20:52:56;;;;;;;7.15;0.65;;;12.00;99.90;;;;;;20506868;28;20046;-49
2022/02/16 21:02:57;;;;;;;5.05;0.50;;;11.80;99.90;;;;;;20515920;28;20047;-49
2022/02/16 21:12:58;;;;;;;6.78;1.85;;;11.90;99.90;;;;;;20485009;28;20039;-48
2022/02/16 21:22:59;;;;;;;13.35;1.05;;;12.00;99.90;;;;;;20471478;28;20070;-49
2022/02/16 21:33:01;;;;;;;6.82;1.25;;;11.90;99.90;;;;;;20473398;28;20050;-49
2022/02/16 21:43:03;;;;;;;4.07;0.88;;;12.00;99.90;;;;;;20482161;28;20051;-48
2022/02/16 21:53:06;;;;;;;6.65;1.70;;;11.90;99.90;;;;;;20488582;28;20488;-48
2022/02/16 22:03:07;;;;;;;4.95;1.60;;;11.90;99.90;;;;;;20472668;28;20118;-47
2022/02/16 22:13:09;;;;;;;12.90;1.25;;;11.80;99.90;;;;;;20479192;28;20807;-47
2022/02/16 22:23:10;;;;;;;10.15;1.45;;;11.70;99.90;;;;;;20477131;28;21323;-47
2022/02/16 22:33:11;;;;;;;11.02;1.65;;;11.80;99.90;;;;;;20457625;28;20047;-46
2022/02/16 22:43:12;;;;;;;10.68;1.80;;;11.70;99.90;;;;;;20477693;28;20287;-46
2022/02/16 22:53:13;;;;;;;8.88;1.75;;;11.80;99.90;;;;;;20491978;28;20387;-46
2022/02/16 23:03:15;;;;;;;10.07;1.35;;;11.70;99.90;;;;;;20475233;28;20043;-46
2022/02/16 23:13:18;;;;;;;9.15;1.73;;;11.80;99.90;;;;;;20489339;28;20558;-46
2022/02/16 23:23:20;;;;;;;9.70;1.38;;;11.80;99.90;;;;;;20483013;28;20430;-46
2022/02/16 23:33:22;;;;;;;8.10;2.05;;;11.70;99.90;;;;;;20491945;28;20046;-46
2022/02/16 23:43:23;;;;;;;4.03;0.88;;;11.80;99.90;;;;;;20486559;28;20033;-46
2022/02/16 23:53:24;;;;;;;13.43;1.88;;;11.90;99.90;;;;;;20515150;28;20043;-46
